Time;durP1;ratioP1;P1;durP2;ratioP2;P2;SDS_P1;SDS_P2;PMS_P1;PMS_P2;Temp;Humidity;BMP_temperature;BMP_pressure;BME280_temperature;BME280_humidity;BME280_pressure;Samples;Min_cycle;Max_cycle;Signal;HPM_P1;HPM_P2
2023/03/27 00:01:14;;;;;;;93.68;26.83;;;;;;;;;;4876366;29;20049;-62
2023/03/27 00:03:47;;;;;;;98.13;28.52;;;;;;;;;;4876723;29;20067;-62
2023/03/27 00:06:16;;;;;;;92.55;28.23;;;;;;;;;;4876222;29;20057;-62
2023/03/27 00:08:47;;;;;;;96.18;29.00;;;;;;;;;;4876021;29;20045;-63
2023/03/27 00:11:14;;;;;;;102.20;26.88;;;;;;;;;;4875647;29;20068;-62
2023/03/27 00:13:40;;;;;;;101.50;28.40;;;;;;;;;;4876244;29;20037;-62
2023/03/27 00:16:17;;;;;;;79.10;26.70;;;;;;;;;;4873557;29;20529;-62
2023/03/27 00:18:44;;;;;;;82.18;27.08;;;;;;;;;;4876656;29;20072;-62
2023/03/27 00:21:11;;;;;;;88.85;28.42;;;;;;;;;;4875887;29;20413;-62
2023/03/27 00:23:37;;;;;;;87.53;27.45;;;;;;;;;;4876182;29;20045;-62
2023/03/27 00:26:04;;;;;;;86.65;27.42;;;;;;;;;;4875761;29;20045;-62
2023/03/27 00:28:31;;;;;;;76.88;25.65;;;;;;;;;;4872445;29;20135;-62
2023/03/27 00:30:57;;;;;;;142.20;31.42;;;;;;;;;;4873878;29;20049;-62
2023/03/27 00:33:25;;;;;;;105.07;29.92;;;;;;;;;;4876006;29;20056;-62
2023/03/27 00:35:52;;;;;;;87.88;30.00;;;;;;;;;;4875653;29;20053;-62
2023/03/27 00:38:18;;;;;;;64.78;29.85;;;;;;;;;;4875728;29;20464;-62
2023/03/27 00:40:46;;;;;;;112.93;34.05;;;;;;;;;;4875349;29;20048;-62
2023/03/27 00:43:19;;;;;;;90.00;30.92;;;;;;;;;;4875946;29;20616;-62
2023/03/27 00:45:46;;;;;;;116.13;31.20;;;;;;;;;;4875393;29;20053;-62
2023/03/27 00:48:13;;;;;;;88.35;31.02;;;;;;;;;;4875842;29;20075;-62
2023/03/27 00:50:41;;;;;;;78.93;29.88;;;;;;;;;;4875277;29;20105;-62
2023/03/27 00:53:13;;;;;;;116.35;28.25;;;;;;;;;;4875141;29;20041;-62
2023/03/27 00:55:41;;;;;;;82.55;24.48;;;;;;;;;;4875726;29;20081;-62
2023/03/27 00:58:19;;;;;;;85.07;24.13;;;;;;;;;;4889415;29;20049;-62
2023/03/27 01:00:48;;;;;;;78.55;24.95;;;;;;;;;;4890361;29;20060;-62
2023/03/27 01:03:14;;;;;;;85.15;25.63;;;;;;;;;;4889652;29;20415;-62
2023/03/27 01:05:41;;;;;;;83.88;25.90;;;;;;;;;;4888861;29;20065;-62
2023/03/27 01:08:09;;;;;;;77.30;23.90;;;;;;;;;;4889232;29;20076;-62
2023/03/27 01:10:42;;;;;;;77.95;23.95;;;;;;;;;;4889422;29;20045;-62
2023/03/27 01:13:22;;;;;;;106.72;24.98;;;;;;;;;;4904899;29;20108;-62
2023/03/27 01:15:49;;;;;;;82.13;24.10;;;;;;;;;;4889580;29;20053;-62
2023/03/27 01:18:28;;;;;;;78.63;25.55;;;;;;;;;;4875144;29;20044;-62
2023/03/27 01:21:06;;;;;;;99.55;26.15;;;;;;;;;;4872492;29;20128;-62
2023/03/27 01:23:52;;;;;;;101.20;26.42;;;;;;;;;;4873691;29;20502;-63
2023/03/27 01:26:41;;;;;;;78.57;23.97;;;;;;;;;;4888381;29;20041;-62
2023/03/27 01:29:11;;;;;;;126.13;27.50;;;;;;;;;;4886158;29;20336;-62
2023/03/27 01:31:57;;;;;;;75.85;24.30;;;;;;;;;;4873505;29;20060;-62
2023/03/27 01:34:29;;;;;;;82.07;24.25;;;;;;;;;;4875207;29;20049;-62
2023/03/27 01:37:08;;;;;;;79.32;23.63;;;;;;;;;;4875003;29;20045;-62
2023/03/27 01:39:42;;;;;;;108.88;26.05;;;;;;;;;;4875262;29;20049;-61
2023/03/27 01:42:23;;;;;;;67.30;21.58;;;;;;;;;;4874078;29;20045;-62
2023/03/27 01:45:09;;;;;;;83.03;22.63;;;;;;;;;;4886029;29;20184;-62
2023/03/27 01:47:40;;;;;;;75.72;22.20;;;;;;;;;;4904117;29;20056;-62
2023/03/27 01:50:16;;;;;;;108.53;24.48;;;;;;;;;;4870575;29;20077;-62
2023/03/27 01:52:45;;;;;;;74.88;22.95;;;;;;;;;;4888805;29;20093;-62
2023/03/27 01:55:17;;;;;;;81.28;22.60;;;;;;;;;;4888809;29;20465;-62
2023/03/27 01:57:48;;;;;;;93.03;24.63;;;;;;;;;;4889234;29;20056;-62
2023/03/27 02:00:20;;;;;;;63.75;23.38;;;;;;;;;;4888662;29;20104;-62
2023/03/27 02:02:50;;;;;;;87.53;23.23;;;;;;;;;;4874332;29;20052;-62
2023/03/27 02:05:27;;;;;;;77.15;25.00;;;;;;;;;;4888236;29;20052;-62
2023/03/27 02:08:15;;;;;;;106.38;24.95;;;;;;;;;;4885107;29;20544;-61
2023/03/27 02:10:45;;;;;;;90.45;25.33;;;;;;;;;;4885372;29;20131;-62
2023/03/27 02:13:18;;;;;;;101.38;24.38;;;;;;;;;;4888411;29;20586;-61
2023/03/27 02:15:47;;;;;;;64.50;20.25;;;;;;;;;;4887689;29;20519;-62
2023/03/27 02:18:17;;;;;;;75.15;24.40;;;;;;;;;;4874372;29;20518;-59
2023/03/27 02:20:44;;;;;;;109.70;25.85;;;;;;;;;;4886299;29;20056;-56
2023/03/27 02:23:11;;;;;;;91.38;21.77;;;;;;;;;;4903490;29;20067;-55
2023/03/27 02:25:39;;;;;;;100.53;23.08;;;;;;;;;;4888110;29;20069;-57
2023/03/27 02:28:09;;;;;;;110.75;24.95;;;;;;;;;;4885955;29;20097;-56
2023/03/27 02:30:39;;;;;;;93.53;23.67;;;;;;;;;;4904566;29;20045;-53
2023/03/27 02:33:16;;;;;;;113.22;23.40;;;;;;;;;;4887574;29;20065;-55
2023/03/27 02:36:07;;;;;;;73.88;22.80;;;;;;;;;;4900436;29;20048;-54
2023/03/27 02:38:40;;;;;;;78.07;23.90;;;;;;;;;;4900817;29;20172;-55
2023/03/27 02:41:20;;;;;;;108.53;23.80;;;;;;;;;;4887990;29;20270;-53
2023/03/27 02:43:52;;;;;;;86.18;20.58;;;;;;;;;;4869605;29;20037;-55
2023/03/27 02:46:33;;;;;;;70.88;19.00;;;;;;;;;;4886658;29;20052;-56
2023/03/27 02:49:06;;;;;;;123.10;25.65;;;;;;;;;;4873678;29;20578;-56
2023/03/27 02:51:39;;;;;;;99.63;24.35;;;;;;;;;;4904306;29;20061;-57
2023/03/27 02:54:10;;;;;;;121.78;25.77;;;;;;;;;;4891496;29;20049;-56
2023/03/27 02:56:42;;;;;;;90.90;26.05;;;;;;;;;;4891449;29;20045;-54
2023/03/27 02:59:21;;;;;;;90.15;24.63;;;;;;;;;;4888463;29;20083;-56
2023/03/27 03:01:48;;;;;;;75.25;21.35;;;;;;;;;;4891441;29;20069;-57
2023/03/27 03:04:25;;;;;;;89.53;24.30;;;;;;;;;;4875868;29;20045;-58
2023/03/27 03:07:15;;;;;;;91.60;24.98;;;;;;;;;;4872681;29;20057;-55
2023/03/27 03:09:43;;;;;;;83.10;24.60;;;;;;;;;;4877550;29;20703;-55
2023/03/27 03:12:09;;;;;;;131.90;27.65;;;;;;;;;;4906439;29;20056;-58
2023/03/27 03:14:42;;;;;;;87.32;23.67;;;;;;;;;;4875662;29;20049;-57
2023/03/27 03:17:10;;;;;;;84.70;24.55;;;;;;;;;;4906878;29;20059;-58
2023/03/27 03:19:36;;;;;;;119.15;27.10;;;;;;;;;;4890701;29;20043;-58
2023/03/27 03:22:03;;;;;;;123.55;29.10;;;;;;;;;;4891288;29;20045;-57
2023/03/27 03:24:32;;;;;;;108.22;26.25;;;;;;;;;;4892516;29;20534;-58
2023/03/27 03:27:01;;;;;;;144.40;28.02;;;;;;;;;;4890344;29;20057;-62
2023/03/27 03:29:29;;;;;;;102.00;27.70;;;;;;;;;;4874413;29;20057;-61
2023/03/27 03:32:07;;;;;;;150.65;31.40;;;;;;;;;;4890668;29;20053;-61
2023/03/27 03:34:35;;;;;;;117.70;27.92;;;;;;;;;;4906345;29;20048;-61
2023/03/27 03:37:02;;;;;;;128.38;28.70;;;;;;;;;;4889006;29;20068;-61
2023/03/27 03:39:29;;;;;;;156.40;31.42;;;;;;;;;;4889526;29;20073;-62
2023/03/27 03:41:56;;;;;;;97.32;29.60;;;;;;;;;;4909282;29;20514;-62
2023/03/27 03:44:22;;;;;;;85.90;26.20;;;;;;;;;;4876768;29;20041;-61
2023/03/27 03:46:49;;;;;;;120.80;28.52;;;;;;;;;;4890579;29;20069;-62
2023/03/27 03:49:19;;;;;;;85.53;23.33;;;;;;;;;;4875408;29;20146;-62
2023/03/27 03:51:46;;;;;;;111.97;30.35;;;;;;;;;;4876278;29;20081;-62
2023/03/27 03:54:29;;;;;;;68.85;25.20;;;;;;;;;;4907037;29;20140;-63
2023/03/27 03:56:56;;;;;;;80.68;23.85;;;;;;;;;;4876576;29;20045;-62
2023/03/27 03:59:22;;;;;;;114.63;27.60;;;;;;;;;;4905660;29;20041;-62
2023/03/27 04:02:11;;;;;;;102.85;27.13;;;;;;;;;;4874944;29;20204;-62
2023/03/27 04:04:38;;;;;;;146.40;31.15;;;;;;;;;;4873513;29;20113;-62
2023/03/27 04:07:09;;;;;;;120.70;27.77;;;;;;;;;;4906387;29;20614;-62
2023/03/27 04:09:41;;;;;;;112.10;30.17;;;;;;;;;;4890673;29;20064;-61
2023/03/27 04:12:15;;;;;;;91.55;27.35;;;;;;;;;;4906598;29;20414;-59
2023/03/27 04:14:55;;;;;;;89.95;26.52;;;;;;;;;;4872299;29;20050;-62
2023/03/27 04:17:47;;;;;;;79.38;26.50;;;;;;;;;;4864453;29;20053;-61
2023/03/27 04:20:14;;;;;;;128.88;33.40;;;;;;;;;;4864682;29;20105;-62
2023/03/27 04:22:45;;;;;;;122.35;30.23;;;;;;;;;;4865099;29;20061;-62
2023/03/27 04:25:13;;;;;;;113.30;31.05;;;;;;;;;;4864911;29;20049;-62
2023/03/27 04:27:43;;;;;;;109.57;29.33;;;;;;;;;;4865584;29;20120;-62
2023/03/27 04:30:32;;;;;;;80.70;27.15;;;;;;;;;;4863703;29;20137;-62
2023/03/27 04:33:17;;;;;;;94.10;26.75;;;;;;;;;;4864421;29;20061;-62
2023/03/27 04:36:07;;;;;;;149.63;33.13;;;;;;;;;;4853751;29;20558;-58
2023/03/27 04:38:43;;;;;;;115.88;34.88;;;;;;;;;;4860032;29;20562;-54
2023/03/27 04:41:12;;;;;;;149.88;42.10;;;;;;;;;;4865441;29;20053;-52
2023/03/27 04:43:41;;;;;;;155.10;39.40;;;;;;;;;;4863210;29;20045;-56
2023/03/27 04:46:08;;;;;;;133.23;37.00;;;;;;;;;;4848557;29;20498;-55
2023/03/27 04:48:37;;;;;;;122.88;36.15;;;;;;;;;;4863101;29;20416;-54
2023/03/27 04:51:31;;;;;;;124.80;40.03;;;;;;;;;;4827207;29;20607;-53
2023/03/27 04:53:58;;;;;;;172.50;51.97;;;;;;;;;;4827722;29;20512;-54
2023/03/27 04:56:24;;;;;;;145.90;46.10;;;;;;;;;;4826091;29;20420;-57
2023/03/27 04:58:53;;;;;;;117.22;45.80;;;;;;;;;;4812767;29;20042;-55
2023/03/27 05:01:20;;;;;;;164.77;49.70;;;;;;;;;;4827353;29;20049;-56
2023/03/27 05:04:13;;;;;;;117.90;43.25;;;;;;;;;;4827760;29;20050;-57
2023/03/27 05:06:58;;;;;;;134.15;43.33;;;;;;;;;;4826952;29;20069;-56
2023/03/27 05:09:25;;;;;;;105.55;38.15;;;;;;;;;;4825592;29;20050;-56
2023/03/27 05:11:52;;;;;;;172.15;42.65;;;;;;;;;;4826837;29;20053;-54
2023/03/27 05:14:19;;;;;;;129.48;36.40;;;;;;;;;;4831718;29;20500;-56
2023/03/27 05:16:50;;;;;;;84.43;29.98;;;;;;;;;;4831253;29;20122;-53
2023/03/27 05:19:18;;;;;;;153.33;35.90;;;;;;;;;;4808297;29;20136;-56
2023/03/27 05:21:54;;;;;;;99.05;30.55;;;;;;;;;;4824805;29;20050;-53
2023/03/27 05:24:20;;;;;;;90.03;29.27;;;;;;;;;;4825890;29;20046;-53
2023/03/27 05:26:47;;;;;;;102.80;28.42;;;;;;;;;;4830225;29;20134;-55
2023/03/27 05:29:15;;;;;;;79.40;27.35;;;;;;;;;;4866069;29;20049;-53
2023/03/27 05:31:44;;;;;;;94.75;27.85;;;;;;;;;;4886038;29;20040;-53
2023/03/27 05:34:29;;;;;;;85.72;25.42;;;;;;;;;;4870924;29;20135;-56
2023/03/27 05:37:04;;;;;;;113.90;26.77;;;;;;;;;;4888290;29;20052;-52
2023/03/27 05:39:35;;;;;;;103.32;25.67;;;;;;;;;;4890032;29;20068;-62
2023/03/27 05:42:07;;;;;;;90.78;19.73;;;;;;;;;;4887956;29;20187;-62
2023/03/27 05:44:33;;;;;;;121.30;21.88;;;;;;;;;;4870668;29;20040;-62
2023/03/27 05:47:00;;;;;;;63.60;16.90;;;;;;;;;;4903820;29;20045;-62
2023/03/27 05:49:29;;;;;;;98.78;18.80;;;;;;;;;;4888220;29;20049;-62
2023/03/27 05:52:07;;;;;;;89.55;17.23;;;;;;;;;;4904101;29;20113;-62
2023/03/27 05:54:34;;;;;;;61.55;15.25;;;;;;;;;;4904953;29;20064;-62
2023/03/27 05:57:06;;;;;;;105.72;20.02;;;;;;;;;;4886455;29;20100;-62
2023/03/27 05:59:33;;;;;;;71.45;16.42;;;;;;;;;;4888060;29;20052;-62
2023/03/27 06:02:17;;;;;;;67.97;17.30;;;;;;;;;;4888426;29;20109;-62
2023/03/27 06:04:53;;;;;;;71.70;15.68;;;;;;;;;;4887929;29;20151;-62
2023/03/27 06:07:27;;;;;;;76.50;16.65;;;;;;;;;;4887396;29;20059;-62
2023/03/27 06:09:59;;;;;;;147.77;19.70;;;;;;;;;;4881557;29;20057;-62
2023/03/27 06:12:31;;;;;;;53.70;15.15;;;;;;;;;;4870827;29;20064;-62
2023/03/27 06:15:07;;;;;;;84.55;16.55;;;;;;;;;;4899768;29;20071;-62
2023/03/27 06:17:40;;;;;;;87.77;17.20;;;;;;;;;;4903831;29;20071;-62
2023/03/27 06:20:11;;;;;;;71.53;15.27;;;;;;;;;;4873441;29;20359;-62
2023/03/27 06:22:46;;;;;;;77.80;16.52;;;;;;;;;;4888581;29;20410;-62
2023/03/27 06:25:14;;;;;;;103.28;16.55;;;;;;;;;;4888350;29;20080;-62
2023/03/27 06:27:42;;;;;;;39.10;11.43;;;;;;;;;;4888824;29;20289;-62
2023/03/27 06:30:10;;;;;;;64.82;12.02;;;;;;;;;;4873766;29;20578;-62
2023/03/27 06:32:42;;;;;;;64.05;11.48;;;;;;;;;;4887980;29;20092;-62
2023/03/27 06:35:09;;;;;;;49.03;9.23;;;;;;;;;;4903883;29;20542;-62
2023/03/27 06:37:49;;;;;;;100.05;12.80;;;;;;;;;;4884552;29;20072;-61
2023/03/27 06:40:21;;;;;;;44.53;8.55;;;;;;;;;;4874317;29;20093;-61
2023/03/27 06:42:57;;;;;;;57.92;8.90;;;;;;;;;;4889430;29;20892;-61
2023/03/27 06:45:31;;;;;;;47.42;7.78;;;;;;;;;;4904222;29;20060;-61
2023/03/27 06:48:23;;;;;;;58.78;7.32;;;;;;;;;;4874205;29;20057;-61
2023/03/27 06:50:54;;;;;;;35.30;7.18;;;;;;;;;;4888256;29;20053;-61
2023/03/27 06:53:21;;;;;;;272.25;23.05;;;;;;;;;;4871466;29;20471;-57
2023/03/27 06:55:51;;;;;;;92.38;11.98;;;;;;;;;;4886752;29;20068;-57
2023/03/27 06:58:19;;;;;;;46.80;7.93;;;;;;;;;;4888000;29;20483;-58
2023/03/27 07:00:48;;;;;;;61.28;9.00;;;;;;;;;;4903480;29;20053;-58
2023/03/27 07:03:16;;;;;;;57.28;8.50;;;;;;;;;;4872757;29;20048;-57
2023/03/27 07:06:01;;;;;;;69.63;8.70;;;;;;;;;;4873307;29;20056;-56
2023/03/27 07:08:35;;;;;;;47.72;7.00;;;;;;;;;;4900454;29;20134;-56
2023/03/27 07:11:02;;;;;;;73.53;9.77;;;;;;;;;;4902768;29;20467;-56
2023/03/27 07:13:33;;;;;;;108.78;12.02;;;;;;;;;;4886818;29;20048;-58
2023/03/27 07:16:03;;;;;;;81.18;10.27;;;;;;;;;;4901481;29;20073;-57
2023/03/27 07:18:31;;;;;;;69.75;9.45;;;;;;;;;;4902249;29;20110;-55
2023/03/27 07:20:58;;;;;;;114.55;11.82;;;;;;;;;;4901572;29;20109;-54
2023/03/27 07:23:26;;;;;;;84.28;9.80;;;;;;;;;;4885587;29;20044;-54
2023/03/27 07:26:01;;;;;;;84.13;10.52;;;;;;;;;;4901761;29;20056;-56
2023/03/27 07:28:49;;;;;;;48.85;7.85;;;;;;;;;;4870309;29;20558;-55
2023/03/27 07:31:16;;;;;;;85.53;9.07;;;;;;;;;;4886706;29;20068;-54
2023/03/27 07:33:46;;;;;;;44.67;7.00;;;;;;;;;;4888251;29;20041;-55
2023/03/27 07:36:13;;;;;;;84.53;8.50;;;;;;;;;;4887058;29;20067;-55
2023/03/27 07:38:46;;;;;;;98.65;9.43;;;;;;;;;;4884469;29;20479;-57
2023/03/27 07:41:31;;;;;;;49.53;6.63;;;;;;;;;;4874973;29;20081;-56
2023/03/27 07:43:58;;;;;;;85.40;9.40;;;;;;;;;;4890713;29;20057;-55
2023/03/27 07:46:29;;;;;;;44.70;5.95;;;;;;;;;;4893408;29;20126;-57
2023/03/27 07:49:00;;;;;;;57.47;6.22;;;;;;;;;;4906645;29;20049;-57
2023/03/27 07:51:27;;;;;;;132.70;11.88;;;;;;;;;;4889746;29;20073;-56
2023/03/27 07:53:57;;;;;;;45.30;5.82;;;;;;;;;;4876073;29;20059;-56
2023/03/27 07:56:32;;;;;;;60.45;6.60;;;;;;;;;;4901618;29;20033;-58
2023/03/27 07:59:26;;;;;;;63.47;7.07;;;;;;;;;;4886965;29;20170;-46
2023/03/27 08:01:56;;;;;;;91.30;8.45;;;;;;;;;;4890035;29;20057;-53
2023/03/27 08:04:26;;;;;;;38.70;4.60;;;;;;;;;;4890104;29;20060;-52
2023/03/27 08:07:04;;;;;;;98.53;8.43;;;;;;;;;;4903396;29;20559;-57
2023/03/27 08:09:31;;;;;;;96.18;7.85;;;;;;;;;;4890481;29;20064;-59
2023/03/27 08:11:57;;;;;;;25.42;4.25;;;;;;;;;;4890578;29;20049;-54
2023/03/27 08:14:25;;;;;;;88.65;8.30;;;;;;;;;;4875040;29;20503;-54
2023/03/27 08:16:54;;;;;;;53.05;5.80;;;;;;;;;;4889723;29;20049;-55
2023/03/27 08:19:38;;;;;;;58.58;5.82;;;;;;;;;;4887753;29;20052;-52
2023/03/27 08:22:05;;;;;;;118.50;10.48;;;;;;;;;;4889775;29;20053;-52
2023/03/27 08:24:44;;;;;;;45.38;5.05;;;;;;;;;;4890056;29;20067;-58
2023/03/27 08:27:20;;;;;;;81.70;7.75;;;;;;;;;;4889937;29;20729;-50
2023/03/27 08:29:48;;;;;;;70.28;6.97;;;;;;;;;;4889541;29;20136;-57
2023/03/27 08:32:16;;;;;;;68.07;6.45;;;;;;;;;;4905371;29;20533;-47
2023/03/27 08:34:44;;;;;;;54.50;6.03;;;;;;;;;;4905425;29;20161;-56
2023/03/27 08:37:17;;;;;;;65.75;5.88;;;;;;;;;;4888795;29;20494;-55
2023/03/27 08:40:09;;;;;;;84.05;7.38;;;;;;;;;;4872947;29;20052;-51
2023/03/27 08:42:39;;;;;;;58.00;5.78;;;;;;;;;;4890506;29;20848;-52
2023/03/27 08:45:12;;;;;;;78.43;7.28;;;;;;;;;;4904402;29;20076;-55
2023/03/27 08:47:53;;;;;;;29.65;3.67;;;;;;;;;;4886029;29;20076;-48
2023/03/27 08:50:51;;;;;;;83.80;7.13;;;;;;;;;;4903931;29;20053;-54
2023/03/27 08:53:29;;;;;;;73.25;7.80;;;;;;;;;;4862316;29;20068;-54
2023/03/27 08:55:57;;;;;;;39.95;4.32;;;;;;;;;;4870344;29;20081;-61
2023/03/27 08:58:37;;;;;;;92.38;7.95;;;;;;;;;;4888581;29;20049;-56
2023/03/27 09:01:35;;;;;;;50.58;5.20;;;;;;;;;;4904119;29;23821;-54
2023/03/27 09:04:26;;;;;;;146.90;11.63;;;;;;;;;;4888535;29;20487;-56
2023/03/27 09:07:02;;;;;;;62.97;5.75;;;;;;;;;;4888691;29;20053;-55
2023/03/27 09:09:33;;;;;;;63.50;5.72;;;;;;;;;;4902747;29;20051;-49
2023/03/27 09:12:11;;;;;;;48.40;4.53;;;;;;;;;;4904151;29;20052;-51
2023/03/27 09:14:41;;;;;;;90.63;7.47;;;;;;;;;;4885353;29;20108;-47
2023/03/27 09:17:17;;;;;;;49.28;5.28;;;;;;;;;;4888744;29;20578;-50
2023/03/27 09:19:49;;;;;;;89.07;7.80;;;;;;;;;;4904361;29;20041;-49
2023/03/27 09:22:22;;;;;;;36.50;4.28;;;;;;;;;;4904528;29;20097;-48
2023/03/27 09:25:29;;;;;;;93.00;7.63;;;;;;;;;;4880878;29;20064;-48
2023/03/27 09:28:36;;;;;;;61.10;5.45;;;;;;;;;;4833670;29;20058;-52
2023/03/27 09:31:18;;;;;;;91.85;7.97;;;;;;;;;;4811459;29;20086;-47
2023/03/27 09:33:46;;;;;;;36.80;4.38;;;;;;;;;;4834945;29;20108;-49
2023/03/27 09:36:12;;;;;;;29.92;3.97;;;;;;;;;;4834596;29;20133;-48
2023/03/27 09:38:43;;;;;;;102.28;7.85;;;;;;;;;;4818702;29;20217;-51
2023/03/27 09:41:20;;;;;;;63.67;5.68;;;;;;;;;;4834169;29;20526;-53
2023/03/27 09:43:52;;;;;;;69.32;6.05;;;;;;;;;;4833731;29;20445;-49
2023/03/27 09:46:20;;;;;;;57.00;5.55;;;;;;;;;;4818841;29;20095;-47
2023/03/27 09:49:04;;;;;;;32.67;3.92;;;;;;;;;;4834684;29;20397;-49
2023/03/27 09:51:38;;;;;;;70.10;6.10;;;;;;;;;;4833973;29;20106;-49
2023/03/27 09:54:13;;;;;;;39.25;4.20;;;;;;;;;;4834267;29;20136;-48
2023/03/27 09:56:41;;;;;;;107.30;8.23;;;;;;;;;;4833566;29;20125;-46
2023/03/27 09:59:19;;;;;;;66.32;6.10;;;;;;;;;;4833790;29;20058;-47
2023/03/27 10:01:47;;;;;;;79.80;7.07;;;;;;;;;;4827759;29;20057;-51
2023/03/27 10:04:18;;;;;;;54.00;5.60;;;;;;;;;;4888109;29;20727;-49
2023/03/27 10:06:55;;;;;;;38.97;4.65;;;;;;;;;;4889143;29;20049;-47
2023/03/27 10:09:33;;;;;;;52.05;5.50;;;;;;;;;;4888848;29;20862;-47
2023/03/27 10:12:06;;;;;;;50.97;5.22;;;;;;;;;;4887239;29;20057;-50
2023/03/27 10:14:36;;;;;;;116.65;8.98;;;;;;;;;;4871471;29;20076;-46
2023/03/27 10:17:04;;;;;;;48.70;5.32;;;;;;;;;;4902063;29;20602;-57
2023/03/27 10:19:38;;;;;;;65.20;6.60;;;;;;;;;;4903794;29;20048;-55
2023/03/27 10:22:22;;;;;;;64.90;7.18;;;;;;;;;;4873792;29;20049;-55
2023/03/27 10:24:50;;;;;;;60.30;6.15;;;;;;;;;;4874656;29;20045;-54
2023/03/27 10:27:39;;;;;;;34.33;4.30;;;;;;;;;;4874947;29;20060;-59
2023/03/27 10:30:39;;;;;;;36.05;4.32;;;;;;;;;;4868796;29;20053;-56
2023/03/27 10:33:28;;;;;;;76.32;7.07;;;;;;;;;;4888881;29;20064;-54
2023/03/27 10:36:09;;;;;;;39.92;3.85;;;;;;;;;;4872451;29;20053;-55
2023/03/27 10:38:37;;;;;;;67.72;6.03;;;;;;;;;;4873428;29;20451;-60
2023/03/27 10:41:29;;;;;;;52.67;6.93;;;;;;;;;;4884891;29;20499;-57
2023/03/27 10:43:57;;;;;;;86.63;7.68;;;;;;;;;;4873723;29;20045;-60
2023/03/27 10:46:25;;;;;;;62.63;6.43;;;;;;;;;;4888350;29;20056;-61
2023/03/27 10:48:54;;;;;;;75.35;6.78;;;;;;;;;;4905058;29;20127;-61
2023/03/27 10:51:42;;;;;;;86.95;8.13;;;;;;;;;;4888322;29;20049;-62
2023/03/27 10:54:31;;;;;;;79.68;7.13;;;;;;;;;;4889123;29;20141;-60
2023/03/27 10:57:11;;;;;;;52.20;6.90;;;;;;;;;;4887922;29;20057;-60
2023/03/27 10:59:43;;;;;;;85.82;7.88;;;;;;;;;;4899921;29;20133;-64
2023/03/27 11:02:22;;;;;;;54.33;11.15;;;;;;;;;;4888173;29;20052;-61
2023/03/27 11:05:07;;;;;;;77.25;7.88;;;;;;;;;;4903149;29;20073;-66
2023/03/27 11:07:39;;;;;;;41.80;5.75;;;;;;;;;;4871193;29;20223;-57
2023/03/27 11:10:13;;;;;;;134.80;10.80;;;;;;;;;;4903116;29;20049;-58
2023/03/27 11:12:43;;;;;;;68.63;6.10;;;;;;;;;;4889168;29;20061;-60
2023/03/27 11:15:18;;;;;;;28.85;4.22;;;;;;;;;;4890842;29;20068;-58
2023/03/27 11:17:48;;;;;;;123.07;9.90;;;;;;;;;;4907367;29;20395;-46
2023/03/27 11:20:30;;;;;;;50.65;6.22;;;;;;;;;;4889062;29;20049;-49
2023/03/27 11:23:23;;;;;;;44.92;8.45;;;;;;;;;;4888896;29;20053;-50
2023/03/27 11:26:15;;;;;;;52.30;6.05;;;;;;;;;;4905001;29;20049;-48
2023/03/27 11:28:51;;;;;;;40.97;5.07;;;;;;;;;;4907318;29;20039;-47
2023/03/27 11:31:38;;;;;;;84.82;7.85;;;;;;;;;;4889737;29;20158;-48
2023/03/27 11:34:14;;;;;;;71.68;6.63;;;;;;;;;;4875782;29;20091;-47
2023/03/27 11:36:58;;;;;;;45.33;5.38;;;;;;;;;;4891898;29;20057;-47
2023/03/27 11:39:37;;;;;;;94.88;7.68;;;;;;;;;;4906470;29;20051;-45
2023/03/27 11:42:12;;;;;;;62.78;5.88;;;;;;;;;;4890612;29;20411;-48
2023/03/27 11:44:38;;;;;;;43.90;4.65;;;;;;;;;;4902479;29;20136;-48
2023/03/27 11:47:18;;;;;;;61.03;5.25;;;;;;;;;;4876320;29;20065;-48
2023/03/27 11:49:46;;;;;;;36.85;4.38;;;;;;;;;;4875578;29;20072;-47
2023/03/27 11:52:19;;;;;;;118.57;10.13;;;;;;;;;;4906132;29;20056;-50
2023/03/27 11:54:52;;;;;;;37.50;4.05;;;;;;;;;;4890276;29;20144;-47
2023/03/27 11:57:24;;;;;;;83.80;7.05;;;;;;;;;;4906255;29;20124;-50
2023/03/27 12:00:00;;;;;;;43.35;5.32;;;;;;;;;;4890060;29;20072;-49
2023/03/27 12:02:55;;;;;;;45.95;5.47;;;;;;;;;;4887410;29;20047;-52
2023/03/27 12:05:24;;;;;;;60.20;5.68;;;;;;;;;;4888700;29;20056;-52
2023/03/27 12:08:05;;;;;;;83.38;7.30;;;;;;;;;;4874511;29;20594;-50
2023/03/27 12:10:37;;;;;;;65.95;6.18;;;;;;;;;;4888333;29;20621;-49
2023/03/27 12:13:22;;;;;;;91.68;8.30;;;;;;;;;;4891907;29;20041;-49
2023/03/27 12:16:09;;;;;;;40.28;4.82;;;;;;;;;;4885338;29;20457;-48
2023/03/27 12:19:02;;;;;;;38.85;5.43;;;;;;;;;;4875740;29;20125;-58
2023/03/27 12:21:50;;;;;;;112.57;10.68;;;;;;;;;;4885332;29;20045;-59
2023/03/27 12:24:20;;;;;;;39.28;7.80;;;;;;;;;;4874400;29;20049;-60
2023/03/27 12:27:12;;;;;;;72.43;8.40;;;;;;;;;;4873697;29;20534;-56
2023/03/27 12:29:57;;;;;;;32.45;3.72;;;;;;;;;;4902678;29;20123;-58
2023/03/27 12:32:43;;;;;;;54.35;5.18;;;;;;;;;;4888198;29;20104;-57
2023/03/27 12:35:13;;;;;;;70.18;7.03;;;;;;;;;;4872914;29;20045;-58
2023/03/27 12:37:49;;;;;;;48.08;5.18;;;;;;;;;;4905470;29;20060;-58
2023/03/27 12:40:30;;;;;;;57.92;5.82;;;;;;;;;;4890372;29;20455;-59
2023/03/27 12:43:05;;;;;;;48.25;5.20;;;;;;;;;;4890567;29;20073;-58
2023/03/27 12:45:32;;;;;;;39.17;4.55;;;;;;;;;;4875799;29;20044;-59
2023/03/27 12:48:10;;;;;;;61.10;5.20;;;;;;;;;;4889536;29;20079;-55
2023/03/27 12:50:47;;;;;;;67.57;5.95;;;;;;;;;;4889616;29;20045;-57
2023/03/27 12:53:25;;;;;;;106.50;8.50;;;;;;;;;;4885515;29;20506;-56
2023/03/27 12:56:16;;;;;;;54.13;5.00;;;;;;;;;;4889369;29;20049;-56
2023/03/27 12:58:47;;;;;;;52.22;8.10;;;;;;;;;;4874212;29;20051;-56
2023/03/27 13:01:29;;;;;;;67.03;6.78;;;;;;;;;;4903915;29;20045;-58
2023/03/27 13:04:32;;;;;;;49.88;4.97;;;;;;;;;;4889224;29;20144;-59
2023/03/27 13:07:19;;;;;;;95.97;7.88;;;;;;;;;;4872831;29;20053;-59
2023/03/27 13:10:10;;;;;;;107.97;8.00;;;;;;;;;;4902317;29;20049;-59
2023/03/27 13:12:45;;;;;;;35.58;3.42;;;;;;;;;;4905608;29;20056;-57
2023/03/27 13:15:30;;;;;;;72.90;6.10;;;;;;;;;;4888597;29;20053;-57
2023/03/27 13:18:12;;;;;;;47.70;4.95;;;;;;;;;;4903251;29;20053;-59
2023/03/27 13:20:44;;;;;;;99.47;7.70;;;;;;;;;;4901256;29;20071;-49
2023/03/27 13:23:11;;;;;;;;;;;;;;;;;;4886676;29;20041;-50
2023/03/27 13:25:46;;;;;;;78.30;6.97;;;;;;;;;;4903968;29;20026;-54
2023/03/27 13:28:25;;;;;;;52.72;5.53;;;;;;;;;;4887276;29;20539;-50
2023/03/27 13:31:01;;;;;;;69.05;5.75;;;;;;;;;;4888236;29;20081;-50
2023/03/27 13:34:13;;;;;;;46.72;6.47;;;;;;;;;;4869864;29;20183;-48
2023/03/27 13:36:47;;;;;;;57.63;5.65;;;;;;;;;;4871210;29;20678;-53
2023/03/27 13:39:21;;;;;;;54.67;4.53;;;;;;;;;;4871295;29;20045;-56
2023/03/27 13:41:56;;;;;;;81.57;7.00;;;;;;;;;;4871271;29;20049;-47
2023/03/27 13:45:06;;;;;;;77.05;6.65;;;;;;;;;;4886421;29;20048;-51
2023/03/27 13:47:52;;;;;;;33.10;3.97;;;;;;;;;;4867855;29;20068;-51
2023/03/27 13:50:35;;;;;;;44.53;5.32;;;;;;;;;;4868399;29;20157;-45
2023/03/27 13:53:23;;;;;;;62.25;5.15;;;;;;;;;;4871123;29;20144;-48
2023/03/27 13:55:58;;;;;;;;;;;;;;;;;;4858653;29;20140;-48
2023/03/27 13:58:51;;;;;;;42.75;4.28;;;;;;;;;;4871059;29;20537;-46
2023/03/27 14:01:32;;;;;;;91.65;7.53;;;;;;;;;;4855660;29;20459;-50
2023/03/27 14:04:09;;;;;;;47.88;5.57;;;;;;;;;;4856025;29;20109;-50
2023/03/27 14:06:54;;;;;;;49.67;5.82;;;;;;;;;;4865422;29;20061;-47
2023/03/27 14:09:39;;;;;;;69.57;6.55;;;;;;;;;;4867057;29;20077;-47
2023/03/27 14:12:19;;;;;;;102.97;9.10;;;;;;;;;;4884213;29;20053;-48
2023/03/27 14:15:18;;;;;;;65.03;9.07;;;;;;;;;;4847244;29;20069;-46
2023/03/27 14:18:26;;;;;;;41.28;5.15;;;;;;;;;;4848885;29;20662;-47
2023/03/27 14:20:57;;;;;;;40.35;4.35;;;;;;;;;;4867188;29;20045;-46
2023/03/27 14:23:27;;;;;;;71.93;6.78;;;;;;;;;;4866573;29;20171;-57
2023/03/27 14:26:09;;;;;;;107.57;9.25;;;;;;;;;;4854582;29;20045;-60
2023/03/27 14:28:41;;;;;;;35.22;4.45;;;;;;;;;;4868737;29;20050;-58
2023/03/27 14:31:13;;;;;;;109.38;8.57;;;;;;;;;;4860622;29;20081;-56
2023/03/27 14:33:59;;;;;;;50.72;5.65;;;;;;;;;;4863696;29;20118;-58
2023/03/27 14:36:29;;;;;;;88.28;7.22;;;;;;;;;;4882142;29;20052;-57
2023/03/27 14:39:05;;;;;;;42.92;4.28;;;;;;;;;;4887732;29;20068;-60
2023/03/27 14:41:47;;;;;;;93.18;7.05;;;;;;;;;;4899337;29;20065;-57
2023/03/27 14:44:16;;;;;;;76.75;6.63;;;;;;;;;;4902771;29;20077;-58
2023/03/27 14:46:44;;;;;;;99.82;8.23;;;;;;;;;;4873025;29;20382;-58
2023/03/27 14:49:12;;;;;;;72.38;6.30;;;;;;;;;;4905884;29;20518;-59
2023/03/27 14:51:46;;;;;;;44.08;4.22;;;;;;;;;;4892274;29;20137;-58
2023/03/27 14:54:26;;;;;;;59.58;4.75;;;;;;;;;;4891175;29;20076;-59
2023/03/27 14:57:00;;;;;;;35.75;3.60;;;;;;;;;;4887737;29;20072;-61
2023/03/27 14:59:36;;;;;;;102.88;7.88;;;;;;;;;;4905887;29;20363;-60
2023/03/27 15:02:40;;;;;;;78.55;6.68;;;;;;;;;;4874990;29;20052;-61
2023/03/27 15:05:11;;;;;;;56.58;4.53;;;;;;;;;;4840085;29;20507;-61
2023/03/27 15:07:42;;;;;;;81.32;5.93;;;;;;;;;;4841073;29;20132;-62